Time;durP1;ratioP1;P1;durP2;ratioP2;P2;SDS_P1;SDS_P2;PMS_P1;PMS_P2;Temp;Humidity;BMP_temperature;BMP_pressure;BME280_temperature;BME280_humidity;BME280_pressure;Samples;Min_cycle;Max_cycle;Signal;HPM_P1;HPM_P2
2023/02/18 09:21:21;;;;;;;5.20;0.87;;;11.20;99.90;;;;;;3194222;23;20322;-74
2023/02/18 09:23:48;;;;;;;3.07;0.30;;;11.10;99.90;;;;;;4992928;28;20230;-75
2023/02/18 09:26:17;;;;;;;2.27;0.57;;;11.10;99.90;;;;;;4988431;28;20353;-69
2023/02/18 09:28:44;;;;;;;4.00;0.50;;;11.10;99.90;;;;;;4971223;28;20293;-72
2023/02/18 09:31:14;;;;;;;1.90;0.40;;;11.10;99.90;;;;;;4975303;28;20203;-71
2023/02/18 09:33:44;;;;;;;4.10;0.80;;;11.10;99.90;;;;;;4975706;28;20555;-70
2023/02/18 09:36:11;;;;;;;3.00;0.40;;;11.00;99.90;;;;;;4975953;28;20217;-70
2023/02/18 09:38:39;;;;;;;5.00;0.80;;;11.00;99.90;;;;;;4976471;28;20211;-72
2023/02/18 09:41:14;;;;;;;2.13;0.50;;;11.10;99.90;;;;;;4976381;28;20215;-74
2023/02/18 09:43:45;;;;;;;8.50;0.50;;;11.20;99.90;;;;;;4976247;28;20349;-74
2023/02/18 09:46:18;;;;;;;3.63;0.70;;;11.30;99.90;;;;;;4977842;28;20213;-72
2023/02/18 09:48:48;;;;;;;3.60;1.13;;;11.30;99.90;;;;;;4977678;28;20213;-71
2023/02/18 09:51:15;;;;;;;1.20;0.63;;;11.40;99.90;;;;;;4977790;28;20211;-73
2023/02/18 09:53:44;;;;;;;2.87;0.80;;;11.40;99.90;;;;;;4977126;28;20207;-73
2023/02/18 09:56:14;;;;;;;1.23;0.50;;;11.40;99.90;;;;;;4977522;28;20207;-74
2023/02/18 09:58:42;;;;;;;5.50;0.73;;;11.30;99.90;;;;;;4977292;28;20639;-74
2023/02/18 10:01:27;;;;;;;3.60;0.50;;;11.30;99.90;;;;;;4977392;28;20211;-75
2023/02/18 10:03:55;;;;;;;3.97;0.80;;;11.30;99.90;;;;;;4977012;28;20231;-72
2023/02/18 10:06:26;;;;;;;5.90;0.60;;;11.30;99.90;;;;;;4976960;28;20217;-74
2023/02/18 10:08:55;;;;;;;4.63;0.60;;;11.30;99.90;;;;;;4977208;28;20218;-75
2023/02/18 10:11:28;;;;;;;4.90;0.57;;;11.50;99.90;;;;;;4977134;28;20225;-75
2023/02/18 10:13:56;;;;;;;2.40;0.87;;;11.60;99.90;;;;;;4977066;28;20215;-75
2023/02/18 10:16:24;;;;;;;4.73;0.70;;;11.60;99.90;;;;;;4977279;28;20265;-76
2023/02/18 10:18:55;;;;;;;1.93;0.60;;;11.60;99.90;;;;;;4977213;28;20218;-74
2023/02/18 10:21:25;;;;;;;4.93;0.77;;;11.60;99.90;;;;;;4976879;28;20215;-76
2023/02/18 10:23:59;;;;;;;3.90;0.77;;;11.50;99.90;;;;;;4977038;28;20246;-74
2023/02/18 10:26:26;;;;;;;2.53;0.60;;;11.50;99.90;;;;;;4976726;28;20283;-75
2023/02/18 10:28:53;;;;;;;5.37;0.80;;;11.50;99.90;;;;;;4976980;28;20207;-75
2023/02/18 10:31:25;;;;;;;3.80;0.67;;;11.40;99.90;;;;;;4976817;28;20210;-76
2023/02/18 10:34:00;;;;;;;4.33;0.67;;;11.50;99.90;;;;;;4976327;28;20215;-75
2023/02/18 10:36:31;;;;;;;2.10;1.00;;;11.50;99.90;;;;;;4975926;28;20233;-75
2023/02/18 10:39:32;;;;;;;4.00;1.00;;;11.60;99.90;;;;;;4976260;28;20314;-74
2023/02/18 10:42:11;;;;;;;2.77;0.63;;;11.50;99.90;;;;;;4975375;28;20721;-74
2023/02/18 10:44:51;;;;;;;1.53;0.60;;;11.40;99.90;;;;;;4976643;28;20238;-74
2023/02/18 10:47:30;;;;;;;3.20;0.60;;;11.50;99.90;;;;;;4976665;28;20238;-74
2023/02/18 10:49:59;;;;;;;2.13;0.53;;;11.60;99.90;;;;;;4976118;28;20207;-74
2023/02/18 10:52:29;;;;;;;1.57;1.00;;;11.50;99.90;;;;;;4975753;28;20207;-74
2023/02/18 10:55:03;;;;;;;2.13;0.60;;;11.50;99.90;;;;;;4976430;28;20214;-72
2023/02/18 10:57:30;;;;;;;1.33;0.90;;;11.60;99.90;;;;;;4976216;28;20314;-75
2023/02/18 11:00:00;;;;;;;4.90;0.80;;;11.70;99.90;;;;;;4976353;28;20207;-75
2023/02/18 11:02:31;;;;;;;3.27;0.87;;;11.70;99.90;;;;;;4976481;28;20203;-74
2023/02/18 11:05:00;;;;;;;1.63;0.70;;;11.60;99.90;;;;;;4976382;28;20239;-73
2023/02/18 11:07:31;;;;;;;1.77;0.90;;;11.60;99.90;;;;;;4976145;28;20238;-74
2023/02/18 11:10:01;;;;;;;1.83;0.80;;;11.50;99.90;;;;;;4976327;28;20215;-70
2023/02/18 11:12:33;;;;;;;2.50;0.77;;;11.50;99.90;;;;;;4975963;28;20215;-75
2023/02/18 11:15:17;;;;;;;0.93;0.70;;;11.60;99.90;;;;;;4976397;28;20231;-75
2023/02/18 11:17:45;;;;;;;1.00;0.70;;;11.60;99.90;;;;;;4976047;28;20278;-75
2023/02/18 11:20:28;;;;;;;5.97;0.83;;;11.70;99.90;;;;;;4975765;28;20666;-76
2023/02/18 11:22:59;;;;;;;3.93;1.03;;;11.70;99.90;;;;;;4975897;28;20568;-74
2023/02/18 11:25:32;;;;;;;1.13;0.70;;;11.80;99.90;;;;;;4975739;28;20235;-73
2023/02/18 11:28:02;;;;;;;4.73;0.70;;;11.80;99.90;;;;;;4975835;28;20275;-77
2023/02/18 11:30:33;;;;;;;3.07;0.57;;;11.80;99.90;;;;;;4975809;28;20217;-76
2023/02/18 11:33:03;;;;;;;2.00;0.60;;;11.90;99.90;;;;;;4975572;28;20561;-75
2023/02/18 11:35:33;;;;;;;6.33;0.50;;;11.90;99.90;;;;;;4975674;28;20689;-74
2023/02/18 11:38:02;;;;;;;1.63;0.80;;;11.90;99.90;;;;;;4975443;28;20784;-69
2023/02/18 11:40:33;;;;;;;3.03;0.60;;;11.90;99.90;;;;;;4975553;28;20692;-70
2023/02/18 11:43:05;;;;;;;5.03;1.07;;;11.80;99.90;;;;;;4975639;28;20207;-76
2023/02/18 11:45:34;;;;;;;2.73;0.70;;;11.80;99.90;;;;;;4975789;28;20294;-75
2023/02/18 11:48:06;;;;;;;2.07;0.70;;;11.90;99.90;;;;;;4975524;28;20233;-72
2023/02/18 11:50:35;;;;;;;5.17;0.90;;;12.10;99.90;;;;;;4975679;28;20207;-76
2023/02/18 11:53:27;;;;;;;3.10;0.53;;;12.10;99.90;;;;;;4975294;28;20211;-75
2023/02/18 11:55:56;;;;;;;3.07;0.50;;;12.00;99.90;;;;;;4975084;28;20670;-76
2023/02/18 11:58:24;;;;;;;1.07;0.70;;;12.00;99.90;;;;;;4975083;28;20224;-75
2023/02/18 12:00:55;;;;;;;4.33;1.10;;;12.20;99.90;;;;;;4975383;28;20295;-75
2023/02/18 12:03:30;;;;;;;3.60;1.00;;;12.10;99.90;;;;;;4975165;28;20211;-75
2023/02/18 12:06:01;;;;;;;5.57;0.70;;;12.10;99.90;;;;;;4975255;28;20240;-75
2023/02/18 12:08:31;;;;;;;2.63;0.63;;;12.10;99.90;;;;;;4975259;28;20238;-76
2023/02/18 12:11:04;;;;;;;3.57;0.73;;;12.00;99.90;;;;;;4974978;28;20207;-75
2023/02/18 12:13:36;;;;;;;1.57;0.70;;;12.10;99.90;;;;;;4974915;28;20670;-75
2023/02/18 12:16:11;;;;;;;3.47;0.70;;;12.10;99.90;;;;;;4975073;28;20748;-76
2023/02/18 12:18:54;;;;;;;1.27;0.50;;;12.10;99.90;;;;;;4975044;28;20212;-75
2023/02/18 12:21:48;;;;;;;2.77;0.60;;;12.20;99.90;;;;;;4974676;28;20226;-76
2023/02/18 12:24:26;;;;;;;2.50;0.53;;;12.30;99.90;;;;;;4973080;28;20211;-75
2023/02/18 12:27:05;;;;;;;6.33;0.87;;;12.30;99.90;;;;;;4974700;28;20227;-76
2023/02/18 12:30:00;;;;;;;3.53;0.60;;;12.30;99.90;;;;;;4974942;28;20217;-75
2023/02/18 12:32:36;;;;;;;4.97;0.70;;;12.20;99.90;;;;;;4975189;28;20211;-75
2023/02/18 12:35:17;;;;;;;3.53;1.40;;;12.10;99.90;;;;;;4974387;28;20217;-77
2023/02/18 12:38:03;;;;;;;3.67;0.70;;;12.10;99.90;;;;;;4974626;28;20249;-74
2023/02/18 12:40:42;;;;;;;3.30;0.70;;;12.20;99.90;;;;;;4974621;28;20210;-75
2023/02/18 12:43:20;;;;;;;5.63;1.77;;;12.40;99.90;;;;;;4974374;28;20211;-74
2023/02/18 12:46:07;;;;;;;3.37;0.63;;;12.40;99.90;;;;;;4974163;28;20235;-73
2023/02/18 12:48:58;;;;;;;3.73;0.50;;;12.30;99.90;;;;;;4974248;28;20207;-73
2023/02/18 12:51:33;;;;;;;4.13;0.60;;;12.30;99.90;;;;;;4967238;28;20207;-74
2023/02/18 12:54:18;;;;;;;2.77;0.50;;;12.30;99.90;;;;;;4974196;28;20672;-76
2023/02/18 12:57:13;;;;;;;7.70;1.07;;;12.40;99.90;;;;;;4974347;28;20227;-75
2023/02/18 13:00:08;;;;;;;3.77;0.53;;;12.30;99.90;;;;;;4971549;28;20243;-73
2023/02/18 13:03:00;;;;;;;2.90;0.70;;;12.40;99.90;;;;;;4974101;28;20218;-73
2023/02/18 13:05:32;;;;;;;4.67;0.80;;;12.40;99.90;;;;;;4973684;28;20322;-74
2023/02/18 13:08:14;;;;;;;4.00;0.70;;;12.30;99.90;;;;;;4974130;28;20274;-73
2023/02/18 13:11:07;;;;;;;6.40;0.70;;;12.20;99.90;;;;;;4974904;28;20700;-73
2023/02/18 13:13:39;;;;;;;2.50;0.73;;;12.20;99.90;;;;;;4972709;28;20701;-74
2023/02/18 13:16:11;;;;;;;4.37;1.07;;;12.10;99.90;;;;;;4974295;28;20211;-75
2023/02/18 13:18:40;;;;;;;2.93;0.97;;;11.90;99.90;;;;;;4974500;28;20211;-74
2023/02/18 13:21:09;;;;;;;2.13;0.87;;;11.80;99.90;;;;;;4973673;28;20231;-72
2023/02/18 13:23:39;;;;;;;3.30;0.70;;;11.70;99.90;;;;;;4974307;28;20215;-72
2023/02/18 13:26:12;;;;;;;5.83;0.80;;;11.70;99.90;;;;;;4973942;28;20246;-74
2023/02/18 13:28:44;;;;;;;3.10;0.60;;;11.50;99.90;;;;;;4973998;28;20215;-73
2023/02/18 13:31:23;;;;;;;2.90;0.70;;;11.50;99.90;;;;;;4973982;28;20207;-75
2023/02/18 13:33:58;;;;;;;2.33;0.67;;;11.60;99.90;;;;;;4973865;28;20220;-76
2023/02/18 13:36:41;;;;;;;1.77;0.70;;;11.60;99.90;;;;;;4973924;28;20206;-75
2023/02/18 13:39:10;;;;;;;2.83;0.60;;;11.60;99.90;;;;;;4974160;28;20207;-76
2023/02/18 13:41:39;;;;;;;3.07;0.93;;;11.70;99.90;;;;;;4973954;28;20214;-74
2023/02/18 13:44:30;;;;;;;2.27;0.60;;;11.70;99.90;;;;;;4973991;28;20291;-74
2023/02/18 13:46:59;;;;;;;1.70;0.60;;;11.60;99.90;;;;;;4973743;28;20231;-74
2023/02/18 13:49:31;;;;;;;5.90;0.77;;;11.60;99.90;;;;;;4973965;28;20670;-74
2023/02/18 13:52:00;;;;;;;3.73;0.90;;;11.70;99.90;;;;;;4973759;28;20211;-73
2023/02/18 13:54:29;;;;;;;8.93;1.13;;;11.70;99.90;;;;;;4973439;28;20226;-71
2023/02/18 13:57:02;;;;;;;4.20;1.10;;;11.70;99.90;;;;;;4973664;28;20233;-73
2023/02/18 13:59:34;;;;;;;1.13;0.63;;;11.60;99.90;;;;;;4974024;28;20678;-74
2023/02/18 14:02:33;;;;;;;6.87;1.40;;;11.50;99.90;;;;;;4973817;28;20211;-75
2023/02/18 14:05:21;;;;;;;4.30;1.27;;;11.40;99.90;;;;;;4973704;28;20678;-75
2023/02/18 14:07:52;;;;;;;8.07;1.33;;;11.20;99.90;;;;;;4977047;28;20216;-70
2023/02/18 14:10:34;;;;;;;3.30;1.03;;;11.20;99.90;;;;;;4975320;28;20235;-73
2023/02/18 14:13:19;;;;;;;6.23;1.00;;;11.30;99.90;;;;;;4973160;28;20211;-75
2023/02/18 14:15:56;;;;;;;7.53;1.20;;;11.40;99.90;;;;;;4974476;28;20211;-71
2023/02/18 14:18:31;;;;;;;2.17;1.00;;;11.30;99.90;;;;;;4977288;28;20235;-74
2023/02/18 14:21:19;;;;;;;5.07;1.33;;;11.20;99.90;;;;;;4976833;28;20219;-73
2023/02/18 14:23:57;;;;;;;3.10;1.77;;;11.20;99.90;;;;;;4976757;28;20685;-74
2023/02/18 14:26:30;;;;;;;4.23;1.10;;;11.20;99.90;;;;;;4976796;28;20235;-73
2023/02/18 14:29:02;;;;;;;3.33;1.10;;;11.20;99.90;;;;;;4976753;28;20214;-74
2023/02/18 14:31:35;;;;;;;3.03;1.00;;;11.30;99.90;;;;;;4976919;28;20207;-75
2023/02/18 14:34:30;;;;;;;3.57;1.10;;;11.40;99.90;;;;;;4976889;28;20211;-76
2023/02/18 14:37:06;;;;;;;1.70;0.93;;;11.40;99.90;;;;;;4976863;28;20231;-73
2023/02/18 14:39:43;;;;;;;2.20;0.90;;;11.50;99.90;;;;;;4976823;28;20214;-72
2023/02/18 14:42:20;;;;;;;5.50;1.50;;;11.30;99.90;;;;;;4976716;28;20207;-73
2023/02/18 14:45:02;;;;;;;5.00;1.03;;;11.30;99.90;;;;;;4976584;28;20211;-74
2023/02/18 14:47:39;;;;;;;3.87;1.10;;;11.40;99.90;;;;;;4976711;28;20242;-74
2023/02/18 14:50:13;;;;;;;5.53;1.63;;;11.40;99.90;;;;;;4976606;28;20214;-74
2023/02/18 14:52:43;;;;;;;3.23;1.03;;;11.50;99.90;;;;;;4976234;28;20222;-75
2023/02/18 14:55:19;;;;;;;7.97;1.77;;;11.40;99.90;;;;;;4976357;28;20223;-73
2023/02/18 14:57:50;;;;;;;4.97;1.10;;;11.50;99.90;;;;;;4976591;28;20227;-75
2023/02/18 15:00:18;;;;;;;2.03;0.97;;;11.40;99.90;;;;;;4976356;28;20207;-72
2023/02/18 15:02:49;;;;;;;4.73;0.90;;;11.40;99.90;;;;;;4976334;28;20203;-74
2023/02/18 15:05:19;;;;;;;1.40;0.80;;;11.50;99.90;;;;;;4976159;28;20206;-75
2023/02/18 15:07:57;;;;;;;2.73;0.97;;;11.50;99.90;;;;;;4976005;28;20227;-77
2023/02/18 15:10:39;;;;;;;2.17;1.03;;;11.50;99.90;;;;;;4976211;28;20219;-76
2023/02/18 15:13:14;;;;;;;4.57;1.00;;;11.50;99.90;;;;;;4976179;28;20215;-73
2023/02/18 15:15:43;;;;;;;3.57;1.10;;;11.50;99.90;;;;;;4976116;28;20265;-72
2023/02/18 15:18:20;;;;;;;4.50;1.03;;;11.40;99.90;;;;;;4976886;28;20237;-75
2023/02/18 15:20:48;;;;;;;4.27;1.53;;;11.40;99.90;;;;;;4975948;28;20218;-71
2023/02/18 15:23:17;;;;;;;1.63;0.90;;;11.50;99.90;;;;;;4976127;28;20207;-72
2023/02/18 15:25:49;;;;;;;4.63;0.90;;;11.60;99.90;;;;;;4971489;28;20596;-74
2023/02/18 15:28:23;;;;;;;3.60;0.90;;;11.50;99.90;;;;;;4973905;28;20231;-75
2023/02/18 15:30:50;;;;;;;3.17;1.00;;;11.40;99.90;;;;;;4975567;28;20345;-74
2023/02/18 15:33:19;;;;;;;6.63;0.90;;;11.40;99.90;;;;;;4975219;28;20203;-72
2023/02/18 15:35:48;;;;;;;3.60;0.93;;;11.40;99.90;;;;;;4974517;28;20218;-71
2023/02/18 15:38:17;;;;;;;3.10;1.00;;;11.50;99.90;;;;;;4975196;28;20262;-73
2023/02/18 15:40:47;;;;;;;2.93;0.90;;;11.40;99.90;;;;;;4975218;28;20294;-74
2023/02/18 15:43:18;;;;;;;3.00;0.97;;;11.50;99.90;;;;;;4975533;28;20203;-74
2023/02/18 15:45:48;;;;;;;7.13;0.90;;;11.40;99.90;;;;;;4974945;28;20330;-73
2023/02/18 15:48:31;;;;;;;1.90;1.10;;;11.40;99.90;;;;;;4975108;28;20227;-73
2023/02/18 15:51:05;;;;;;;5.90;1.20;;;11.40;99.90;;;;;;4974901;28;20207;-73
2023/02/18 15:53:35;;;;;;;4.87;1.00;;;11.40;99.90;;;;;;4975422;28;20214;-75
2023/02/18 15:56:06;;;;;;;4.83;1.00;;;11.40;99.90;;;;;;4974834;28;20211;-74
2023/02/18 15:58:34;;;;;;;2.17;0.87;;;11.50;99.90;;;;;;4975075;28;20211;-74
